Station PTIT2 - 8779770 - Port Isabel, TX Image indicating link to RSS feed of recent meteorological observations for station PTIT2


Conditions at PTIT2 as of
(5:30 am CDT)
1030 GMT on 09/01/2026:
     

Click on the graph icon in the table below to see a time series plot of the last five days of that observation.

5-day plot - Wind Direction Wind Direction (WDIR): S ( 180 deg true )
5-day plot - Wind Speed Wind Speed (WSPD): 4.1 kts
5-day plot - Wind Gust Wind Gust (GST): 5.1 kts
5-day plot - Atmospheric Pressure Atmospheric Pressure (PRES):29.92 in
5-day plot - Air Temperature Air Temperature (ATMP): 80.4 °F
5-day plot - Water Temperature Water Temperature (WTMP): 84.4 °F
5-day plot - Wind Speed at 10 Meters Wind Speed at 10 meters (WSPD10M): 3.9 kts
5-day plot - Wind Speed at 20 Meters Wind Speed at 20 meters (WSPD20M): 3.9 kts
5-day plot -  Wind Speed, Wind Gust and Atmospheric Pressure Combined plot of Wind Speed, Gust, and Air Pressure
NOS Water Level Observation Network Water Level
Previous observations
TIME
(CDT)
5-day plot - Wind Direction
WDIR
 
5-day plot - Wind Speed
WSPD
kts
5-day plot - Wind Gust
GST
kts
5-day plot - Wave Height
WVHT
ft
5-day plot - Dominant Wave Period
DPD
sec
5-day plot - Average Wave Period
APD
sec
5-day plot - Mean Wave Direction
MWD
 
5-day plot - Atmospheric Pressure
PRES
in
5-day plot - Pressure Tendency
PTDY
in
5-day plot - Air Temperature
ATMP
°F
5-day plot - Water Temperature
WTMP
°F
5-day plot - Dew Point
DEWP
°F
5-day plot - Salinity
SAL
psu
5-day plot - Visibility
VIS
nmi
5-day plot - Tide (above MLLW)
TIDE
ft
2026-09-01 05:24 am S 2.9 5.1----29.92- 80.4 84.4----
2026-09-01 05:18 am S 2.9 4.1----29.92-- 84.4----
2026-09-01 05:12 am S 4.1 5.1----29.92-- 84.6----
2026-09-01 05:06 am S 4.1 6.0----29.92-- 84.6----
2026-09-01 05:00 am S 4.1 6.0----29.92- 80.6 84.6----
2026-09-01 04:54 am S 4.1 6.0----29.92- 80.6 84.7----
2026-09-01 04:48 am S 4.1 6.0----29.92- 80.6 84.7----
2026-09-01 04:42 am S 4.1 5.1----29.92- 80.6 84.7----
2026-09-01 04:36 am S 4.1 5.1----29.92- 80.8 84.7----
2026-09-01 04:30 am S 2.9 4.1----29.92- 80.8 84.9----
2026-09-01 04:24 amSSW 2.9 5.1----29.92- 80.8 84.9----
2026-09-01 04:18 am S 2.9 5.1----29.92-- 84.9----
2026-09-01 04:12 am S 4.1 5.1----29.92-- 84.9----
2026-09-01 04:06 am S 5.1 6.0----29.92-- 84.9----
2026-09-01 04:00 am S 4.1 6.0----29.92-0.03 81.1 85.1----
2026-09-01 03:54 amSSW 4.1 6.0----29.92- 81.1 85.1----
2026-09-01 03:48 amSSW 5.1 6.0----29.92-- 85.1----
2026-09-01 03:42 am S 4.1 6.0----29.92-- 85.1----
2026-09-01 03:36 am S 5.1 6.0----29.92-- 85.1----
2026-09-01 03:30 am S 5.1 7.0----29.93- 81.7 85.1----
2026-09-01 03:24 am S 4.1 5.1----29.93- 81.7 85.1----
2026-09-01 03:18 am S 4.1 6.0----29.93-- 85.1----
2026-09-01 03:12 am S 4.1 5.1----29.93-- 85.1----
2026-09-01 03:06 am S 4.1 6.0----29.93-- 85.1----
2026-09-01 03:00 am S 5.1 6.0----29.93-0.02 82.2 85.1----
2026-09-01 02:54 am S 5.1 8.0----29.93- 82.4 85.1----
2026-09-01 02:48 am S 5.1 7.0----29.93- 82.6 85.1----
2026-09-01 02:42 am S 5.1 8.0----29.93- 82.6 85.1----
2026-09-01 02:36 am S 7.0 8.0----29.93- 82.8 85.1----
2026-09-01 02:30 am S 7.0 8.9----29.93- 82.8 85.1----
2026-09-01 02:24 am S 7.0 8.9----29.93- 82.8 85.1----
2026-09-01 02:18 am S 6.0 8.9----29.93- 82.8 85.1----
2026-09-01 02:12 am S 6.0 8.9----29.93- 82.9 85.1----
2026-09-01 02:06 am S 6.0 8.0----29.93- 82.9 85.3----
2026-09-01 02:00 am S 6.0 8.9------ 83.1 85.3----
2026-09-01 01:54 am S 6.0 8.0------ 83.1 85.3----
2026-09-01 01:48 am S 6.0 8.0----29.94- 83.1 85.3----
2026-09-01 01:42 am S 5.1 8.9----29.94- 83.3 85.3----
2026-09-01 01:36 am S 6.0 7.0----29.94- 83.3 85.3----
2026-09-01 01:30 am S 6.0 8.0----29.94-- 85.3----
2026-09-01 01:24 am S 7.0 8.0----29.94-- 85.3----
2026-09-01 01:18 am S 6.0 8.0----29.95-- 85.3----
2026-09-01 01:12 am S 6.0 8.9----29.94-- 85.3----
2026-09-01 01:06 am S 7.0 12.0----29.95-- 85.3----
2026-09-01 01:00 amSSE 9.9 13.0----29.95+0.00 83.8 85.5----
2026-09-01 12:54 amSSE 9.9 12.0----29.94- 83.8 85.5----
2026-09-01 12:48 amSSE 8.9 11.1----29.94- 83.7 85.5----
2026-09-01 12:42 amSSE 8.9 12.0----29.95- 83.7 85.6----
2026-09-01 12:36 amSSE 8.9 11.1----29.95- 83.8 85.6----
2026-09-01 12:30 amSSE 9.9 12.0----29.95-- 85.6----
2026-09-01 12:24 amSSE 8.9 11.1----29.95-- 85.6----
2026-09-01 12:18 am S 8.0 9.9----29.95-- 86.0----
2026-09-01 12:12 amSSE 8.0 11.1----29.95-- 86.0----
2026-09-01 12:06 amSSE 8.9 13.0----29.95-- 86.0----
2026-09-01 12:00 am S 8.9 12.0----29.95+0.04 84.0 86.4----
2026-08-31 11:54 pmSSE 8.9 13.0----29.95- 84.0 87.1----
2026-08-31 11:48 pmSSE 11.1 13.0----29.95- 84.0 87.1----
2026-08-31 11:42 pmSSE 8.9 12.0----29.95- 84.0 87.1----
2026-08-31 11:36 pmSSE 8.0 12.0----29.95- 84.0 87.1----
2026-08-31 11:30 pmSSE 8.9 12.0----29.95- 84.0 87.3----
2026-08-31 11:24 pmSSE 8.9 11.1----29.95- 84.2 87.3----
2026-08-31 11:18 pmSSE 8.9 12.0----29.95-- 87.3----
2026-08-31 11:12 pmSSE 8.9 11.1----29.95-- 87.4----
2026-08-31 11:06 pmSSE 8.0 11.1----29.95-- 87.4----
2026-08-31 11:00 pmSSE 8.9 12.0----29.95+0.06 84.0 87.4----
2026-08-31 10:54 pmSSE 8.9 12.0----29.95- 83.8 87.4----
2026-08-31 10:48 pmSSE 8.0 11.1----29.95-- 87.4----
2026-08-31 10:42 pm SE 11.1 13.0----29.95-- 87.4----
2026-08-31 10:36 pm SE 8.9 11.1----29.95-- 87.6----
2026-08-31 10:30 pm SE 8.0 11.1----29.95- 84.0 87.6----
2026-08-31 10:24 pm SE 8.9 12.0----29.95- 84.2 87.6----
2026-08-31 10:18 pm SE 9.9 13.0------- 87.6----
2026-08-31 10:12 pm SE 8.9 11.1------- 87.8----
2026-08-31 10:06 pm SE 8.0 11.1------- 87.8----
2026-08-31 10:00 pm SE 11.1 13.0----29.94+0.06 84.2 87.8----
2026-08-31 09:54 pm SE 12.0 14.0----29.94- 84.2 87.8----
2026-08-31 09:48 pm SE 11.1 12.0----29.93- 84.2 87.8----
2026-08-31 09:42 pm SE 8.9 11.1----29.93- 84.0 88.0----
2026-08-31 09:36 pm SE 8.9 11.1----29.93- 84.2 88.0----
2026-08-31 09:30 pm SE 8.9 11.1----29.93- 84.4 88.0----
2026-08-31 09:24 pm SE 8.9 12.0----29.92- 84.4 88.0----
2026-08-31 09:18 pm SE 9.9 13.0----29.92-- 88.0----
2026-08-31 09:12 pm SE 9.9 12.0----29.92-- 88.0----
2026-08-31 09:06 pm SE 11.1 13.0----29.91-- 88.0----
2026-08-31 09:00 pm SE 9.9 12.0----29.91+0.02 84.4 88.2----
2026-08-31 08:54 pm SE 11.1 14.0----29.91- 84.6 88.2----
2026-08-31 08:48 pm SE 11.1 14.0----29.91- 84.6 88.2----
2026-08-31 08:42 pm SE 11.1 12.0----29.90- 84.6 88.2----
2026-08-31 08:36 pmESE 11.1 14.0----29.90- 84.7 88.2----
2026-08-31 08:30 pm SE 12.0 15.0----29.90- 84.7 88.3----
2026-08-31 08:24 pm SE 11.1 15.0----29.90- 84.6 88.3----
2026-08-31 08:18 pm SE 12.0 15.9----29.90-- 88.3----
2026-08-31 08:12 pm SE 11.1 15.0----29.90-- 88.3----
2026-08-31 08:06 pm SE 11.1 15.0----29.90-- 88.3----
2026-08-31 08:00 pm SE 12.0 15.0----29.89+0.00 84.7 88.3----
2026-08-31 07:54 pm SE 12.0 15.0----29.89- 84.7 88.3----
2026-08-31 07:48 pm SE 13.0 15.9----29.89-- 88.3----
2026-08-31 07:42 pmESE 11.1 15.0----29.89-- 88.3----
2026-08-31 07:36 pm SE 13.0 15.0----29.89-- 88.3----
2026-08-31 07:30 pmESE 12.0 17.1----29.88- 85.1 88.5----
2026-08-31 07:24 pm SE 12.0 15.9----29.88- 85.3 88.5----
2026-08-31 07:18 pmESE 13.0 15.9----29.88-- 88.5----
2026-08-31 07:12 pmESE 14.0 18.1----29.88-- 88.5----
2026-08-31 07:06 pmESE 13.0 17.1----29.88-- 88.7----
2026-08-31 07:00 pm SE 12.0 15.0----29.88-0.02 85.6 88.7----
2026-08-31 06:54 pmESE 13.0 17.1----29.89- 85.6 88.7----
2026-08-31 06:48 pmESE 15.0 17.1----29.88-- 88.7----
2026-08-31 06:42 pmESE 13.0 18.1----29.88-- 88.7----
2026-08-31 06:36 pmESE 15.0 18.1----29.88-- 88.7----
2026-08-31 05:48 pmESE 14.0 19.0----29.89- 86.2 88.9----
2026-08-31 05:42 pm SE 14.0 18.1----29.89- 86.2 88.9----
2026-08-31 05:36 pmESE 14.0 18.1----29.89- 86.4 88.9----
2026-08-31 05:30 pmESE 14.0 18.1----29.89- 86.5 88.9----
2026-08-31 05:24 pmESE 15.0 18.1----29.89- 86.5 88.9----
2026-08-31 05:18 pmESE 14.0 18.1----29.90- 86.2 88.9----
2026-08-31 05:12 pmESE 15.0 19.0----29.90- 86.2 88.7----
2026-08-31 05:06 pmESE 14.0 19.0----29.90- 86.4 88.7----
2026-08-31 05:00 pmESE 14.0 19.0----29.90-0.06 86.2 88.7----
2026-08-31 04:54 pmESE 13.0 17.1----29.90- 86.4 88.7----
2026-08-31 04:48 pmESE 15.0 18.1----29.90-- 88.7----
2026-08-31 04:42 pmESE 15.0 20.0----29.90-- 88.7----
2026-08-31 04:36 pmESE 15.0 18.1----29.90-- 88.7----
2026-08-31 04:30 pmESE 13.0 18.1----29.91- 86.5 88.7----
2026-08-31 04:24 pmESE 14.0 17.1----29.91- 86.5 88.9----
2026-08-31 04:18 pmESE 13.0 19.0----29.91-- 88.9----
2026-08-31 04:12 pmESE 13.0 18.1----29.91-- 88.9----
2026-08-31 04:06 pm SE 14.0 18.1----29.91-- 88.9----
2026-08-31 04:00 pmESE 13.0 19.0----29.91-0.05 86.4 88.9----
2026-08-31 03:54 pmESE 14.0 18.1----29.91- 86.4 88.9----
2026-08-31 03:48 pmESE 14.0 18.1----29.91- 86.7 88.9----
2026-08-31 03:42 pmESE 12.0 19.0----29.91- 86.7 88.9----
2026-08-31 03:36 pmESE 15.0 19.0----29.91- 86.7 88.9----
2026-08-31 03:30 pmESE 14.0 19.0----29.92- 86.7 88.9----
2026-08-31 03:24 pmESE 15.0 19.0----29.92- 86.4 88.9----
2026-08-31 03:18 pmESE 14.0 19.0----29.93-- 88.9----
2026-08-31 03:12 pmESE 15.0 20.0----29.93-- 88.9----
2026-08-31 03:06 pmESE 15.0 19.0----29.93-- 88.9----
2026-08-31 03:00 pmESE 15.0 19.0----29.93-0.04 86.9 88.9----
2026-08-31 02:54 pm SE 13.0 19.0----29.93- 86.9 88.7----
2026-08-31 02:48 pm SE 15.0 19.0----29.93- 86.7 88.7----
2026-08-31 02:42 pm SE 14.0 18.1----29.94- 86.5 88.7----
2026-08-31 02:36 pm SE 12.0 17.1----29.94- 86.9 88.5----
2026-08-31 02:30 pm SE 15.0 18.1----29.94- 86.5 88.5----
2026-08-31 02:24 pm SE 14.0 19.0----29.95- 86.5 88.3----
2026-08-31 02:18 pmESE 14.0 19.0----29.95-- 88.3----
2026-08-31 02:12 pmESE 15.0 18.1----29.95-- 88.3----
2026-08-31 02:06 pmESE 15.0 19.0----29.95-- 88.3----
2026-08-31 02:00 pmESE 13.0 18.1----29.96-0.01 87.1 88.3----
2026-08-31 01:54 pm SE 15.0 18.1----29.96- 86.9 88.3----
2026-08-31 01:48 pm SE 15.0 19.0----29.96- 86.9 88.3----
2026-08-31 01:42 pmESE 14.0 18.1----29.96- 87.4 88.2----
2026-08-31 01:36 pm SE 15.0 18.1----29.96- 87.3 88.2----
2026-08-31 01:30 pmESE 15.0 18.1----29.96- 87.6 88.2----
2026-08-31 01:24 pmESE 14.0 17.1----29.96- 87.6 88.2----
2026-08-31 01:18 pm SE 15.0 18.1----29.96-- 88.2----
2026-08-31 01:12 pm SE 13.0 17.1----29.96-- 88.0----
2026-08-31 01:06 pmSSE 12.0 17.1----29.96-- 88.0----
2026-08-31 01:00 pm SE 13.0 17.1----29.96+0.00 88.0 88.0----
2026-08-31 12:54 pm SE 15.0 17.1----29.96- 87.3 88.0----
2026-08-31 12:48 pm SE 15.9 19.0----29.96-- 88.0----
2026-08-31 12:42 pmESE 14.0 19.0----29.96-- 87.6----
2026-08-31 12:36 pm SE 15.9 19.0----29.96-- 87.6----
2026-08-31 12:30 pm SE 15.0 19.0----29.96- 87.4 87.6----
2026-08-31 12:24 pm SE 15.0 19.0----29.96- 88.3 87.6----
2026-08-31 12:18 pm SE 14.0 17.1----29.96-- 87.6----
2026-08-31 12:12 pmESE 15.9 18.1----29.96-- 87.6----
2026-08-31 12:06 pm SE 13.0 18.1----29.96-- 87.4----
2026-08-31 12:00 pm SE 15.9 18.1----29.96+0.00 88.0 87.4----
2026-08-31 11:54 am SE 15.9 18.1----29.96- 88.0 87.4----
2026-08-31 11:48 am SE 15.0 17.1----29.96- 88.0 87.4----
2026-08-31 11:42 am SE 14.0 17.1----29.96- 88.0 87.4----
2026-08-31 11:36 am SE 14.0 17.1----29.96- 87.8 87.4----
2026-08-31 11:30 amSSE 12.0 17.1----29.96- 87.6 87.4----
2026-08-31 11:24 am SE 13.0 15.9----29.96- 87.3 87.4----
2026-08-31 11:18 am SE 13.0 15.9----29.96-- 87.4----
2026-08-31 11:12 amSSE 9.9 14.0----29.96-- 87.4----
2026-08-31 11:06 am SE 9.9 12.0----29.96-- 87.4----
2026-08-31 11:00 am S 8.0 12.0----29.96+0.02 90.9 87.3----
2026-08-31 10:54 amSSE 11.1 14.0----29.96- 89.1 87.3----
2026-08-31 10:48 amSSE 8.0 9.9----29.96- 89.6 87.3----
2026-08-31 10:42 am S 8.9 12.0----29.96- 89.6 87.3----
2026-08-31 10:36 amSSE 9.9 13.0----29.96- 89.1 87.3----
2026-08-31 10:30 am S 9.9 13.0----29.96- 90.0 87.3----
2026-08-31 10:24 am S 8.9 13.0----29.96- 89.1 87.3----
2026-08-31 10:18 am S 11.1 15.0----29.96-- 87.3----
2026-08-31 10:12 am S 12.0 15.9----29.96-- 87.3----
2026-08-31 10:06 am S 12.0 15.0----29.96-- 87.3----
2026-08-31 10:00 am S 8.9 14.0----29.96+0.04 88.0 87.3----
2026-08-31 09:54 am S 12.0 15.0----29.96- 87.3 87.3----
2026-08-31 09:48 am S 9.9 13.0----29.96- 86.9 87.1----
2026-08-31 09:42 am S 8.9 13.0----29.96- 86.4 87.1----
2026-08-31 09:36 am S 11.1 14.0----29.95- 86.2 87.1----
2026-08-31 09:30 amSSE 8.0 11.1----29.95- 86.4 87.1----
2026-08-31 09:24 am S 8.0 11.1----29.96- 86.2 87.3----
2026-08-31 09:18 am S 8.0 13.0----29.96-- 87.3----
2026-08-31 09:12 am S 8.9 11.1----29.96-- 87.3----
2026-08-31 09:06 am S 8.0 12.0----29.96-- 87.3----
2026-08-31 09:00 am S 8.0 11.1----29.96+0.05 85.5 87.3----
2026-08-31 08:54 am S 8.0 9.9----29.95- 85.3 87.3----
2026-08-31 08:48 am S 7.0 9.9----29.95-- 87.3----
2026-08-31 08:42 am S 6.0 8.0----29.95-- 87.3----
2026-08-31 08:36 amSSE 8.0 8.9----29.95-- 87.3----
2026-08-31 08:30 am S 7.0 8.9----29.95- 83.8 87.3----
2026-08-31 08:24 amSSE 7.0 8.9----29.95- 83.7 87.3----
2026-08-31 08:18 amSSE 6.0 8.0----29.94-- 87.3----
2026-08-31 08:12 amSSE 7.0 8.0----29.94-- 87.3----
2026-08-31 08:06 amSSE 6.0 7.0----29.94-- 87.3----
2026-08-31 08:00 amSSE 5.1 7.0----29.94+0.03 82.9 87.3----
2026-08-31 07:54 amSSE 6.0 7.0----29.94- 82.6 87.3----
2026-08-31 07:48 amSSE 5.1 6.0----29.94-- 87.3----
2026-08-31 07:42 amSSE 5.1 6.0----29.93-- 87.3----
2026-08-31 07:36 amSSE 4.1 5.1----29.93-- 87.3----
2026-08-31 07:30 amSSE 5.1 6.0----29.93- 81.9 87.3----
2026-08-31 07:24 amSSE 5.1 6.0----29.93- 81.9 87.3----
2026-08-31 07:18 amSSE 4.1 5.1----29.93-- 87.3----
2026-08-31 07:12 amSSE 5.1 6.0----29.92-- 87.3----
2026-08-31 07:06 am S 2.9 5.1----29.92-- 87.3----
2026-08-31 07:00 am S 4.1 5.1----29.92+0.00 81.7 87.3----
2026-08-31 06:54 am S 4.1 5.1----29.92- 81.7 87.3----
2026-08-31 06:48 am S 4.1 5.1----29.92-- 87.3----
2026-08-31 06:42 am S 2.9 5.1----29.92-- 87.4----
2026-08-31 06:36 am S 4.1 5.1----29.92-- 87.4----
2026-08-31 06:30 am S 4.1 5.1----29.92- 81.7 87.4----
2026-08-31 06:24 am S 4.1 5.1----29.92- 81.9 87.4----
2026-08-31 06:18 am S 4.1 5.1----29.91-- 87.4----
2026-08-31 06:12 am S 2.9 5.1----29.91-- 87.4----
2026-08-31 06:06 am S 2.9 5.1----29.91-- 87.4----
2026-08-31 06:00 am S 4.1 5.1----29.91-0.01 81.9 87.4----
2026-08-31 05:54 am S 4.1 5.1----29.91- 81.9 87.4----